createdAt,value
2023-12-09T00:00:41.481Z,17.95
2023-12-09T00:03:12.783Z,16.73
2023-12-09T00:05:43.652Z,19.60
2023-12-09T00:08:13.954Z,19.27
2023-12-09T00:10:47.465Z,18.92
2023-12-09T00:13:26.492Z,20.65
2023-12-09T00:15:57.362Z,19.52
2023-12-09T00:21:04.541Z,18.95
2023-12-09T00:23:35.555Z,18.75
2023-12-09T00:26:24.147Z,19.48
2023-12-09T00:28:57.009Z,18.20
2023-12-09T00:31:32.561Z,19.15
2023-12-09T00:34:03.041Z,18.80
2023-12-09T00:36:38.846Z,18.55
2023-12-09T00:39:09.669Z,20.20
2023-12-09T00:41:40.435Z,20.70
2023-12-09T00:44:18.599Z,19.85
2023-12-09T00:46:49.546Z,19.48
2023-12-09T00:49:27.579Z,18.30
2023-12-09T00:52:04.380Z,18.70
2023-12-09T00:54:35.392Z,18.00
2023-12-09T00:59:39.337Z,17.35
2023-12-09T01:02:10.077Z,19.17
2023-12-09T01:04:41.461Z,18.75
2023-12-09T01:07:15.871Z,18.40
2023-12-09T01:09:46.753Z,18.33
2023-12-09T01:12:17.254Z,19.08
2023-12-09T01:14:56.879Z,16.70
2023-12-09T01:17:28.346Z,18.80
2023-12-09T01:20:04.618Z,17.98
2023-12-09T01:25:28.387Z,17.33
2023-12-09T01:27:59.256Z,18.50
2023-12-09T01:30:35.350Z,17.70
2023-12-09T01:33:06.362Z,17.52
2023-12-09T01:35:37.289Z,18.95
2023-12-09T01:38:15.131Z,17.20
2023-12-09T01:40:47.278Z,18.48
2023-12-09T01:43:18.423Z,18.50
2023-12-09T01:45:56.738Z,17.55
2023-12-09T01:48:27.102Z,15.07
2023-12-09T01:51:03.276Z,17.42
2023-12-09T01:53:34.730Z,16.05
2023-12-09T01:56:20.454Z,17.42
2023-12-09T01:58:53.913Z,16.48
2023-12-09T02:01:45.499Z,17.52
2023-12-09T02:04:18.430Z,17.00
2023-12-09T02:06:49.092Z,17.80
2023-12-09T02:09:22.952Z,17.20
2023-12-09T02:12:03.944Z,18.05
2023-12-09T02:14:41.172Z,17.65
2023-12-09T02:17:28.808Z,16.55
2023-12-09T02:20:04.456Z,17.92
2023-12-09T02:22:40.962Z,16.50
2023-12-09T02:25:15.211Z,17.45
2023-12-09T02:27:54.952Z,18.63
2023-12-09T02:30:32.352Z,17.60
2023-12-09T02:33:06.885Z,15.75
2023-12-09T02:35:43.955Z,17.60
2023-12-09T02:38:16.034Z,17.17
2023-12-09T02:40:53.782Z,14.50
2023-12-09T02:43:24.226Z,17.27
2023-12-09T02:46:03.369Z,16.63
2023-12-09T02:48:34.651Z,15.48
2023-12-09T02:51:07.915Z,15.57
2023-12-09T02:53:45.591Z,16.75
2023-12-09T02:56:22.674Z,16.80
2023-12-09T02:58:56.135Z,16.23
2023-12-09T03:01:26.399Z,14.93
2023-12-09T03:04:01.494Z,16.20
2023-12-09T03:06:35.054Z,13.95
2023-12-09T03:09:06.168Z,15.30
2023-12-09T03:11:44.270Z,13.95
2023-12-09T03:14:15.423Z,15.13
2023-12-09T03:19:30.773Z,11.52
2023-12-09T03:24:35.505Z,13.63
2023-12-09T03:27:16.149Z,15.75
2023-12-09T03:29:52.124Z,13.50
2023-12-09T03:32:22.696Z,15.02
2023-12-09T03:37:23.917Z,13.75
2023-12-09T03:39:59.498Z,13.68
2023-12-09T03:42:35.849Z,15.02
2023-12-09T03:45:06.573Z,13.35
2023-12-09T03:47:37.504Z,12.95
2023-12-09T03:52:42.917Z,13.45
2023-12-09T03:55:18.677Z,14.77
2023-12-09T03:57:55.130Z,15.73
2023-12-09T04:00:27.088Z,14.20
2023-12-09T04:03:00.899Z,14.52
2023-12-09T04:05:31.202Z,13.52
2023-12-09T04:08:10.960Z,13.85
2023-12-09T04:10:41.730Z,13.50
2023-12-09T04:13:20.580Z,14.45
2023-12-09T04:15:51.880Z,14.95
2023-12-09T04:18:23.137Z,14.52
2023-12-09T04:20:58.879Z,12.80
2023-12-09T04:23:29.430Z,13.60
2023-12-09T04:26:03.220Z,13.20
2023-12-09T04:28:36.700Z,12.75
2023-12-09T04:31:09.402Z,13.73
2023-12-09T04:33:45.593Z,12.63
2023-12-09T04:36:17.826Z,13.60
2023-12-09T04:38:49.172Z,11.82
2023-12-09T04:41:20.975Z,14.73
2023-12-09T04:43:54.962Z,13.57
2023-12-09T04:46:25.322Z,15.82
2023-12-09T04:51:30.154Z,13.32
2023-12-09T04:54:01.083Z,14.13
2023-12-09T04:56:32.194Z,13.95
2023-12-09T04:59:12.758Z,15.25
2023-12-09T05:01:43.901Z,15.77
2023-12-09T05:04:15.782Z,12.63
2023-12-09T05:06:50.232Z,12.75
2023-12-09T05:09:26.117Z,11.27
2023-12-09T05:11:57.451Z,13.50
2023-12-09T05:14:33.433Z,11.70
2023-12-09T05:17:11.311Z,13.00
2023-12-09T05:19:44.646Z,12.55
2023-12-09T05:22:16.833Z,11.43
2023-12-09T05:24:54.024Z,13.35
2023-12-09T05:27:34.392Z,11.60
2023-12-09T05:30:08.914Z,12.32
2023-12-09T05:32:40.916Z,10.35
2023-12-09T05:35:12.050Z,12.15
2023-12-09T05:37:45.712Z,10.60
2023-12-09T05:40:17.070Z,11.18
2023-12-09T05:42:47.903Z,12.32
2023-12-09T05:45:21.189Z,10.85
2023-12-09T05:48:07.390Z,12.38
2023-12-09T05:50:39.206Z,10.20
2023-12-09T05:53:10.545Z,9.88
2023-12-09T05:55:46.465Z,12.57
2023-12-09T05:58:22.314Z,11.60
2023-12-09T06:00:58.147Z,12.48
2023-12-09T06:03:29.119Z,15.27
2023-12-09T06:05:59.835Z,10.50
2023-12-09T06:08:36.058Z,11.38
2023-12-09T06:11:14.684Z,12.38
2023-12-09T06:13:55.336Z,10.35
2023-12-09T06:16:28.509Z,12.27
2023-12-09T06:18:59.518Z,10.65
2023-12-09T06:21:34.743Z,11.95
2023-12-09T06:24:05.518Z,10.88
2023-12-09T06:26:37.156Z,12.18
2023-12-09T06:31:52.220Z,10.23
2023-12-09T06:34:31.192Z,11.48
2023-12-09T06:37:09.346Z,10.40
2023-12-09T06:39:40.227Z,11.93
2023-12-09T06:42:11.478Z,11.50
2023-12-09T06:44:44.036Z,12.40
2023-12-09T06:47:21.109Z,11.38
2023-12-09T06:49:54.613Z,11.52
2023-12-09T06:52:30.577Z,12.57
2023-12-09T06:55:04.466Z,11.38
2023-12-09T06:57:35.929Z,10.65
2023-12-09T07:00:11.094Z,10.82
2023-12-09T07:02:56.502Z,12.55
2023-12-09T07:05:30.478Z,12.10
2023-12-09T07:08:04.624Z,14.15
2023-12-09T07:10:37.810Z,12.95
2023-12-09T07:13:09.412Z,10.48
2023-12-09T07:15:45.631Z,12.77
2023-12-09T07:18:21.125Z,11.10
2023-12-09T07:21:01.870Z,11.25
2023-12-09T07:23:35.670Z,11.63
2023-12-09T07:26:12.102Z,10.40
2023-12-09T07:28:42.838Z,10.32
2023-12-09T07:31:13.622Z,10.90
2023-12-09T07:33:47.287Z,12.30
2023-12-09T07:36:18.834Z,11.70
2023-12-09T07:38:49.929Z,12.57
2023-12-09T07:41:23.799Z,11.40
2023-12-09T07:44:00.263Z,11.75
2023-12-09T07:46:34.162Z,11.23
2023-12-09T07:49:10.771Z,13.98
2023-12-09T07:51:41.656Z,10.23
2023-12-09T07:54:15.375Z,13.02
2023-12-09T07:56:48.209Z,11.52
2023-12-09T07:59:20.990Z,9.70
2023-12-09T08:01:52.137Z,11.98
2023-12-09T08:04:26.117Z,12.45
2023-12-09T08:06:59.985Z,11.05
2023-12-09T08:09:31.831Z,10.80
2023-12-09T08:12:09.100Z,11.18
2023-12-09T08:14:42.346Z,10.52
2023-12-09T08:17:18.718Z,10.73
2023-12-09T08:19:51.732Z,9.05
2023-12-09T08:22:24.023Z,9.55
2023-12-09T08:24:58.120Z,11.23
2023-12-09T08:27:29.155Z,12.10
2023-12-09T08:30:02.216Z,11.13
2023-12-09T08:32:43.169Z,9.25
2023-12-09T08:35:16.871Z,9.63
2023-12-09T08:37:52.482Z,10.50
2023-12-09T08:40:32.473Z,10.98
2023-12-09T08:43:03.502Z,10.73
2023-12-09T08:45:35.811Z,11.55
2023-12-09T08:48:08.774Z,9.63
2023-12-09T08:50:42.155Z,12.00
2023-12-09T08:53:15.655Z,9.05
2023-12-09T08:55:46.366Z,10.20
2023-12-09T08:58:18.393Z,10.57
2023-12-09T09:00:54.138Z,10.90
2023-12-09T09:03:24.791Z,9.25
2023-12-09T09:06:02.793Z,10.02
2023-12-09T09:08:36.050Z,10.90
2023-12-09T09:11:14.993Z,11.43
2023-12-09T09:13:45.833Z,11.43
2023-12-09T09:16:20.294Z,11.23
2023-12-09T09:18:51.800Z,12.07
2023-12-09T09:21:31.880Z,10.55
2023-12-09T09:24:03.775Z,11.10
2023-12-09T09:26:39.706Z,10.45
2023-12-09T09:29:11.845Z,10.88
2023-12-09T09:31:46.741Z,10.02
2023-12-09T09:34:23.746Z,12.15
2023-12-09T09:37:04.197Z,11.52
2023-12-09T09:39:36.564Z,9.75
2023-12-09T09:42:20.497Z,11.15
2023-12-09T09:45:09.900Z,11.23
2023-12-09T09:47:44.717Z,11.27
2023-12-09T09:50:17.295Z,9.25
2023-12-09T09:52:52.045Z,11.57
2023-12-09T09:55:23.964Z,9.75
2023-12-09T09:57:57.897Z,9.98
2023-12-09T10:00:32.857Z,9.68
2023-12-09T10:03:04.934Z,10.52
2023-12-09T10:05:36.476Z,10.77
2023-12-09T10:08:13.000Z,9.43
2023-12-09T10:10:44.132Z,9.18
2023-12-09T10:13:21.671Z,11.30
2023-12-09T10:15:52.090Z,10.02
2023-12-09T10:18:27.286Z,10.43
2023-12-09T10:20:59.325Z,10.60
2023-12-09T10:23:36.913Z,10.63
2023-12-09T10:26:08.371Z,10.63
2023-12-09T10:28:45.049Z,10.07
2023-12-09T10:31:21.160Z,9.85
2023-12-09T10:33:55.800Z,10.82
2023-12-09T10:36:27.185Z,10.50
2023-12-09T10:39:01.447Z,9.98
2023-12-09T10:41:32.191Z,9.07
2023-12-09T10:44:07.007Z,11.07
2023-12-09T10:46:40.019Z,8.95
2023-12-09T10:49:24.304Z,9.18
2023-12-09T10:52:00.676Z,8.98
2023-12-09T10:54:36.159Z,8.85
2023-12-09T10:57:10.569Z,8.88
2023-12-09T10:59:45.109Z,8.52
2023-12-09T11:02:19.568Z,9.00
2023-12-09T11:04:50.808Z,8.88
2023-12-09T11:09:58.462Z,9.85
2023-12-09T11:12:33.985Z,7.95
2023-12-09T11:15:11.448Z,9.30
2023-12-09T11:17:43.013Z,8.23
2023-12-09T11:20:20.882Z,8.88
2023-12-09T11:23:00.999Z,9.95
2023-12-09T11:28:10.698Z,7.90
2023-12-09T11:30:45.538Z,6.95
2023-12-09T11:33:21.043Z,6.60
2023-12-09T11:35:53.004Z,6.68
2023-12-09T11:38:26.152Z,7.20
2023-12-09T11:40:59.754Z,7.18
2023-12-09T11:43:30.205Z,8.68
2023-12-09T11:46:03.462Z,8.35
2023-12-09T11:48:34.990Z,6.22
2023-12-09T11:51:11.282Z,6.82
2023-12-09T11:53:56.060Z,5.88
2023-12-09T11:56:30.605Z,6.15
2023-12-09T11:59:02.029Z,6.55
2023-12-09T12:01:37.991Z,6.65
2023-12-09T12:04:12.652Z,6.45
2023-12-09T12:06:44.953Z,6.93
2023-12-09T12:09:16.011Z,6.28
2023-12-09T12:11:53.392Z,6.65
2023-12-09T12:14:24.435Z,6.40
2023-12-09T12:16:58.202Z,7.35
2023-12-09T12:19:29.873Z,6.53
2023-12-09T12:22:04.921Z,7.60
2023-12-09T12:24:47.150Z,7.97
2023-12-09T12:27:25.846Z,7.80
2023-12-09T12:30:00.980Z,8.45
2023-12-09T12:32:39.717Z,8.20
2023-12-09T12:35:19.596Z,9.75
2023-12-09T12:37:52.173Z,7.93
2023-12-09T12:40:33.249Z,8.10
2023-12-09T12:43:08.942Z,6.68
2023-12-09T12:45:42.217Z,8.40
2023-12-09T12:48:15.733Z,8.98
2023-12-09T12:50:49.594Z,9.57
2023-12-09T12:53:24.521Z,8.15
2023-12-09T12:56:01.251Z,7.63
2023-12-09T12:58:37.076Z,8.13
2023-12-09T13:01:11.245Z,8.55
2023-12-09T13:03:51.370Z,7.20
2023-12-09T13:06:22.458Z,7.47
2023-12-09T13:08:53.585Z,7.88
2023-12-09T13:11:26.750Z,7.82
2023-12-09T13:14:00.009Z,7.35
2023-12-09T13:16:33.148Z,6.68
2023-12-09T13:19:03.937Z,7.50
2023-12-09T13:24:15.625Z,5.78
2023-12-09T13:26:56.195Z,7.05
2023-12-09T13:29:29.488Z,7.25
2023-12-09T13:32:03.363Z,6.85
2023-12-09T13:34:40.118Z,7.57
2023-12-09T13:37:14.729Z,7.00
2023-12-09T13:39:48.224Z,7.38
2023-12-09T13:42:19.228Z,6.97
2023-12-09T13:47:24.121Z,6.07
2023-12-09T13:49:55.328Z,7.18
2023-12-09T13:52:28.291Z,7.68
2023-12-09T13:55:03.342Z,6.85
2023-12-09T13:57:33.845Z,7.82
2023-12-09T14:00:14.707Z,6.78
2023-12-09T14:02:46.895Z,6.53
2023-12-09T14:05:19.968Z,6.75
2023-12-09T14:08:01.173Z,6.20
2023-12-09T14:10:34.350Z,7.50
2023-12-09T14:13:05.549Z,8.60
2023-12-09T14:15:39.179Z,6.97
2023-12-09T14:18:15.485Z,7.50
2023-12-09T14:20:51.014Z,7.47
2023-12-09T14:23:21.959Z,7.47
2023-12-09T14:25:53.332Z,7.13
2023-12-09T14:28:26.988Z,6.53
2023-12-09T14:31:07.530Z,8.02
2023-12-09T14:33:43.027Z,7.65
2023-12-09T14:36:20.081Z,7.22
2023-12-09T14:41:28.616Z,6.50
2023-12-09T14:44:08.646Z,7.70
2023-12-09T14:46:45.375Z,7.20
2023-12-09T14:49:16.750Z,7.63
2023-12-09T14:51:53.125Z,7.60
2023-12-09T14:54:27.410Z,7.88
2023-12-09T14:57:02.395Z,7.43
2023-12-09T14:59:32.789Z,8.05
2023-12-09T15:02:07.573Z,8.55
2023-12-09T15:04:40.600Z,7.63
2023-12-09T15:07:14.853Z,8.45
2023-12-09T15:09:48.692Z,8.38
2023-12-09T15:12:29.413Z,6.70
2023-12-09T15:15:02.402Z,8.38
2023-12-09T15:17:48.061Z,7.85
2023-12-09T15:20:23.028Z,9.65
2023-12-09T15:23:00.990Z,8.20
2023-12-09T15:25:34.703Z,8.88
2023-12-09T15:28:05.177Z,8.10
2023-12-09T15:30:38.038Z,8.55
2023-12-09T15:33:11.648Z,8.20
2023-12-09T15:35:44.919Z,8.43
2023-12-09T15:38:18.990Z,7.78
2023-12-09T15:40:50.304Z,9.20
2023-12-09T15:43:21.188Z,8.20
2023-12-09T15:45:53.761Z,10.07
2023-12-09T15:48:30.452Z,10.38
2023-12-09T15:51:06.486Z,8.77
2023-12-09T15:53:43.131Z,8.10
2023-12-09T15:56:17.421Z,8.10
2023-12-09T15:58:59.127Z,8.77
2023-12-09T16:01:33.388Z,9.48
2023-12-09T16:04:23.083Z,9.52
2023-12-09T16:07:09.074Z,7.90
2023-12-09T16:09:44.681Z,7.93
2023-12-09T16:12:24.566Z,9.45
2023-12-09T16:14:55.557Z,9.23
2023-12-09T16:17:29.191Z,9.07
2023-12-09T16:20:09.606Z,10.25
2023-12-09T16:22:46.204Z,9.60
2023-12-09T16:25:17.006Z,9.90
2023-12-09T16:27:49.673Z,10.07
2023-12-09T16:30:22.943Z,9.18
2023-12-09T16:33:03.408Z,9.50
2023-12-09T16:35:37.054Z,9.25
2023-12-09T16:38:10.062Z,11.05
2023-12-09T16:40:41.575Z,10.27
2023-12-09T16:43:12.498Z,8.05
2023-12-09T16:45:44.692Z,9.95
2023-12-09T16:48:15.670Z,10.65
2023-12-09T16:50:51.819Z,10.07
2023-12-09T16:53:27.491Z,10.02
2023-12-09T16:56:05.158Z,10.27
2023-12-09T16:58:35.548Z,9.30
2023-12-09T17:01:18.583Z,9.07
2023-12-09T17:03:49.595Z,9.07
2023-12-09T17:06:23.142Z,10.07
2023-12-09T17:08:59.883Z,8.93
2023-12-09T17:11:37.944Z,8.40
2023-12-09T17:14:08.819Z,8.43
2023-12-09T17:19:18.871Z,9.38
2023-12-09T17:21:58.139Z,9.30
2023-12-09T17:24:32.975Z,10.55
2023-12-09T17:27:06.410Z,10.02
2023-12-09T17:29:37.063Z,10.55
2023-12-09T17:34:42.713Z,11.05
2023-12-09T17:37:16.009Z,13.70
2023-12-09T17:39:46.434Z,14.77
2023-12-09T17:44:47.610Z,13.38
2023-12-09T17:47:23.383Z,14.20
2023-12-09T17:49:55.059Z,15.05
2023-12-09T17:52:37.640Z,13.63
2023-12-09T17:55:10.214Z,12.75
2023-12-09T17:57:41.464Z,12.30
2023-12-09T18:00:13.027Z,13.23
2023-12-09T18:02:46.462Z,11.68
2023-12-09T18:05:21.517Z,12.23
2023-12-09T18:08:00.504Z,13.77
2023-12-09T18:10:31.972Z,12.98
2023-12-09T18:13:06.590Z,11.73
2023-12-09T18:15:45.582Z,12.57
2023-12-09T18:18:17.404Z,14.25
2023-12-09T18:20:52.976Z,11.50
2023-12-09T18:23:26.765Z,10.27
2023-12-09T18:26:01.106Z,12.68
2023-12-09T18:28:32.310Z,11.40
2023-12-09T18:31:16.020Z,11.05
2023-12-09T18:33:47.690Z,12.30
2023-12-09T18:36:19.371Z,12.45
2023-12-09T18:38:55.764Z,11.85
2023-12-09T18:41:32.572Z,11.77
2023-12-09T18:44:13.104Z,11.45
2023-12-09T18:46:54.004Z,11.48
2023-12-09T18:49:32.069Z,9.98
2023-12-09T18:52:19.231Z,11.23
2023-12-09T18:54:56.308Z,10.20
2023-12-09T18:57:26.713Z,11.27
2023-12-09T18:59:59.025Z,9.88
2023-12-09T19:02:33.927Z,10.48
2023-12-09T19:05:05.269Z,11.15
2023-12-09T19:07:39.653Z,11.40
2023-12-09T19:10:14.352Z,10.55
2023-12-09T19:12:49.832Z,12.13
2023-12-09T19:15:22.271Z,10.43
2023-12-09T19:17:52.698Z,11.27
2023-12-09T19:20:23.758Z,11.52
2023-12-09T19:25:28.261Z,10.50
2023-12-09T19:28:00.406Z,10.23
2023-12-09T19:30:38.232Z,11.25
2023-12-09T19:33:09.007Z,11.20
2023-12-09T19:35:45.504Z,10.18
2023-12-09T19:38:18.632Z,11.93
2023-12-09T19:40:57.948Z,10.13
2023-12-09T19:43:36.716Z,8.98
2023-12-09T19:46:13.638Z,11.38
2023-12-09T19:48:44.761Z,10.85
2023-12-09T19:51:15.770Z,9.55
2023-12-09T19:53:46.433Z,11.05
2023-12-09T19:56:19.304Z,10.90
2023-12-09T19:58:49.976Z,10.07
2023-12-09T20:01:23.007Z,9.35
2023-12-09T20:03:53.962Z,12.07
2023-12-09T20:06:28.710Z,10.68
2023-12-09T20:09:01.964Z,11.00
2023-12-09T20:11:38.036Z,10.13
2023-12-09T20:14:09.198Z,10.43
2023-12-09T20:16:39.853Z,11.32
2023-12-09T20:19:10.912Z,8.55
2023-12-09T20:21:42.080Z,10.73
2023-12-09T20:24:13.162Z,10.20
2023-12-09T20:26:46.925Z,9.93
2023-12-09T20:29:18.246Z,9.38
2023-12-09T20:34:23.445Z,10.38
2023-12-09T20:36:55.195Z,9.98
2023-12-09T20:39:29.369Z,10.02
2023-12-09T20:42:08.603Z,10.32
2023-12-09T20:44:39.492Z,11.63
2023-12-09T20:49:53.376Z,9.75
2023-12-09T20:52:26.153Z,9.10
2023-12-09T20:54:56.916Z,9.65
2023-12-09T20:57:31.457Z,10.07
2023-12-09T21:00:06.915Z,10.93
2023-12-09T21:02:37.991Z,10.52
2023-12-09T21:07:46.289Z,8.13
2023-12-09T21:10:20.134Z,9.02
2023-12-09T21:12:57.925Z,8.20
2023-12-09T21:15:29.823Z,7.97
2023-12-09T21:18:07.868Z,10.05
2023-12-09T21:20:39.922Z,7.53
2023-12-09T21:23:13.133Z,9.02
2023-12-09T21:25:43.597Z,5.68
2023-12-09T21:28:17.751Z,8.25
2023-12-09T21:30:53.476Z,7.28
2023-12-09T21:33:25.274Z,6.45
2023-12-09T21:35:58.831Z,6.00
2023-12-09T21:38:31.049Z,5.97
2023-12-09T21:41:01.919Z,5.90
2023-12-09T21:43:34.887Z,6.43
2023-12-09T21:46:05.884Z,5.00
2023-12-09T21:48:37.068Z,6.03
2023-12-09T21:51:07.677Z,5.75
2023-12-09T21:53:40.973Z,6.00
2023-12-09T21:56:22.455Z,6.60
2023-12-09T21:58:56.505Z,6.90
2023-12-09T22:01:27.726Z,6.45
2023-12-09T22:03:58.707Z,6.85
2023-12-09T22:06:35.585Z,6.97
2023-12-09T22:09:07.552Z,7.43
2023-12-09T22:11:40.620Z,7.82
2023-12-09T22:14:14.053Z,7.55
2023-12-09T22:16:45.235Z,8.40
2023-12-09T22:19:20.079Z,7.32
2023-12-09T22:21:51.176Z,7.05
2023-12-09T22:24:24.391Z,7.20
2023-12-09T22:26:56.149Z,8.35
2023-12-09T22:29:33.486Z,7.38
2023-12-09T22:32:04.336Z,7.00
2023-12-09T22:37:06.912Z,6.55
2023-12-09T22:39:39.932Z,6.57
2023-12-09T22:42:11.469Z,7.80
2023-12-09T22:44:48.720Z,7.90
2023-12-09T22:47:25.518Z,7.38
2023-12-09T22:52:27.174Z,6.75
2023-12-09T22:54:58.232Z,6.63
2023-12-09T22:57:29.964Z,6.80
2023-12-09T23:00:05.099Z,6.93
2023-12-09T23:02:36.028Z,8.82
2023-12-09T23:07:37.674Z,6.72
2023-12-09T23:10:09.535Z,9.00
2023-12-09T23:12:40.449Z,6.78
2023-12-09T23:15:14.386Z,8.93
2023-12-09T23:17:47.807Z,7.60
2023-12-09T23:20:19.529Z,10.07
2023-12-09T23:22:50.724Z,9.02
2023-12-09T23:25:23.271Z,8.63
2023-12-09T23:27:54.167Z,9.15
2023-12-09T23:30:31.737Z,8.60
2023-12-09T23:33:03.946Z,9.88
2023-12-09T23:35:34.835Z,8.98
2023-12-09T23:38:11.262Z,9.02
2023-12-09T23:40:42.178Z,8.13
2023-12-09T23:43:14.720Z,9.05
2023-12-09T23:45:48.235Z,7.88
2023-12-09T23:48:19.536Z,10.13
2023-12-09T23:50:50.882Z,10.35
2023-12-09T23:53:22.241Z,8.43
2023-12-09T23:58:22.747Z,9.98
